Time;durP1;ratioP1;P1;durP2;ratioP2;P2;SDS_P1;SDS_P2;PMS_P1;PMS_P2;Temp;Humidity;BMP_temperature;BMP_pressure;BME280_temperature;BME280_humidity;BME280_pressure;Samples;Min_cycle;Max_cycle;Signal;HPM_P1;HPM_P2
2022/01/08 00:00:36;;;;;;;3.40;3.07;;;;;;;;;;4957770;29;20793;-59
2022/01/08 00:03:02;;;;;;;3.20;2.90;;;;;;;;;;4957845;29;20976;-60
2022/01/08 00:05:28;;;;;;;7.33;3.10;;;;;;;;;;4958183;29;20411;-58
2022/01/08 00:07:54;;;;;;;3.10;2.80;;;;;;;;;;4957628;29;20465;-58
2022/01/08 00:10:22;;;;;;;2.80;2.30;;;;;;;;;;4976730;23;20488;-79
2022/01/08 00:12:50;;;;;;;5.30;2.90;;;;;;;;;;4983147;28;20422;-78
2022/01/08 00:15:16;;;;;;;3.10;2.40;;;;;;;;;;4985758;28;20417;-78
2022/01/08 00:17:42;;;;;;;3.07;2.73;;;;;;;;;;4989388;28;20401;-78
2022/01/08 00:20:09;;;;;;;5.70;3.70;;;;;;;;;;4995616;28;20456;-77
2022/01/08 00:22:35;;;;;;;4.23;3.23;;;;;;;;;;5000970;28;20404;-77
2022/01/08 00:25:01;;;;;;;4.80;3.00;;;;;;;;;;4999948;28;20448;-77
2022/01/08 00:27:27;;;;;;;3.57;3.27;;;;;;;;;;4993167;28;20413;-78
2022/01/08 00:29:54;;;;;;;3.83;3.47;;;;;;;;;;4984208;28;20500;-79
2022/01/08 00:32:20;;;;;;;2.97;2.67;;;;;;;;;;4986820;28;20409;-79
2022/01/08 00:34:46;;;;;;;3.60;3.20;;;;;;;;;;4988185;28;20504;-79
2022/01/08 00:37:13;;;;;;;4.53;3.40;;;;;;;;;;4988960;28;20401;-79
2022/01/08 00:39:40;;;;;;;4.03;3.50;;;;;;;;;;4990306;28;20457;-79
2022/01/08 00:42:06;;;;;;;4.07;3.03;;;;;;;;;;4982237;28;20402;-79
2022/01/08 00:44:32;;;;;;;4.90;3.20;;;;;;;;;;4980482;28;20428;-80
2022/01/08 00:46:58;;;;;;;4.57;3.30;;;;;;;;;;4981852;28;20468;-79
2022/01/08 00:49:25;;;;;;;3.03;2.73;;;;;;;;;;4985554;28;20413;-79
2022/01/08 00:51:51;;;;;;;3.53;3.23;;;;;;;;;;4984833;28;20425;-79
2022/01/08 00:54:18;;;;;;;4.60;3.20;;;;;;;;;;4986647;28;20465;-79
2022/01/08 00:56:44;;;;;;;4.43;3.57;;;;;;;;;;4987825;28;20413;-79
2022/01/08 00:59:10;;;;;;;3.43;3.03;;;;;;;;;;4985759;28;20496;-79
2022/01/08 01:01:36;;;;;;;3.87;2.87;;;;;;;;;;4984753;28;20377;-80
2022/01/08 01:04:02;;;;;;;3.13;2.57;;;;;;;;;;4986487;28;20461;-79
2022/01/08 01:06:28;;;;;;;4.33;3.20;;;;;;;;;;4984844;28;20437;-79
2022/01/08 01:08:54;;;;;;;4.17;3.27;;;;;;;;;;4982086;28;20460;-79
2022/01/08 01:11:20;;;;;;;5.13;3.27;;;;;;;;;;4982888;28;20774;-79
2022/01/08 01:13:46;;;;;;;5.43;3.77;;;;;;;;;;4982727;28;20421;-80
2022/01/08 01:16:12;;;;;;;4.20;3.17;;;;;;;;;;4982422;28;20425;-80
2022/01/08 01:18:38;;;;;;;3.50;3.10;;;;;;;;;;4982060;28;20413;-79
2022/01/08 01:21:05;;;;;;;5.40;3.60;;;;;;;;;;4982437;28;20460;-80
2022/01/08 01:23:36;;;;;;;4.20;3.10;;;;;;;;;;4981687;28;20406;-80
2022/01/08 01:26:06;;;;;;;4.10;3.70;;;;;;;;;;4980537;28;20402;-80
2022/01/08 01:28:51;;;;;;;4.90;3.67;;;;;;;;;;4982453;28;20429;-79
2022/01/08 01:47:16;;;;;;;4.80;3.27;;;;;;;;;;4981719;28;20810;-79
2022/01/08 01:49:47;;;;;;;7.90;3.33;;;;;;;;;;4980229;28;20448;-79
2022/01/08 01:52:15;;;;;;;3.90;3.23;;;;;;;;;;4981089;28;20818;-80
2022/01/08 01:54:41;;;;;;;6.00;3.70;;;;;;;;;;4979889;28;20444;-79
2022/01/08 01:57:08;;;;;;;4.63;3.77;;;;;;;;;;4980807;28;20410;-79
2022/01/08 01:59:36;;;;;;;4.47;3.70;;;;;;;;;;4980284;28;20547;-80
2022/01/08 02:02:02;;;;;;;5.20;3.70;;;;;;;;;;4978904;28;20501;-80
2022/01/08 02:04:29;;;;;;;6.50;4.00;;;;;;;;;;4978927;28;20441;-80
2022/01/08 02:06:55;;;;;;;4.47;3.90;;;;;;;;;;4980283;28;20885;-80
2022/01/08 02:09:21;;;;;;;8.93;4.53;;;;;;;;;;4980690;28;20806;-80
2022/01/08 02:11:59;;;;;;;3.60;3.10;;;;;;;;;;4980601;28;20433;-79
2022/01/08 02:14:26;;;;;;;3.50;2.90;;;;;;;;;;4979995;28;20444;-79
2022/01/08 02:16:52;;;;;;;9.30;4.37;;;;;;;;;;4981174;28;20413;-79
2022/01/08 02:19:18;;;;;;;4.80;3.57;;;;;;;;;;4980154;28;20454;-79
2022/01/08 02:22:04;;;;;;;3.47;2.93;;;;;;;;;;4981050;28;20401;-79
2022/01/08 02:24:30;;;;;;;4.77;3.50;;;;;;;;;;4981040;28;20430;-79
2022/01/08 02:26:56;;;;;;;3.73;3.37;;;;;;;;;;4980331;28;20413;-79
2022/01/08 02:29:23;;;;;;;4.20;2.80;;;;;;;;;;4981773;28;20429;-79
2022/01/08 02:31:55;;;;;;;3.33;2.90;;;;;;;;;;4980009;28;20520;-79
2022/01/08 02:34:21;;;;;;;4.40;3.63;;;;;;;;;;4980116;28;20766;-79
2022/01/08 02:36:47;;;;;;;4.40;2.77;;;;;;;;;;4980633;28;20413;-79
2022/01/08 02:39:14;;;;;;;3.80;3.17;;;;;;;;;;4980802;28;20441;-79
2022/01/08 02:41:40;;;;;;;4.23;3.37;;;;;;;;;;4980695;28;20405;-79
2022/01/08 02:44:07;;;;;;;3.97;2.93;;;;;;;;;;4980911;28;20413;-79
2022/01/08 02:46:33;;;;;;;3.47;2.80;;;;;;;;;;4979952;28;20408;-79
2022/01/08 02:48:59;;;;;;;3.53;2.50;;;;;;;;;;4981069;28;20406;-79
2022/01/08 02:51:25;;;;;;;3.43;2.93;;;;;;;;;;4977489;28;20426;-77
2022/01/08 02:53:51;;;;;;;4.97;3.30;;;;;;;;;;4975184;28;20512;-78
2022/01/08 02:56:18;;;;;;;3.87;2.90;;;;;;;;;;4969974;28;20417;-78
2022/01/08 02:58:44;;;;;;;4.20;3.10;;;;;;;;;;4978626;28;20424;-79
2022/01/08 03:01:10;;;;;;;5.90;3.60;;;;;;;;;;4980141;28;20552;-79
2022/01/08 03:03:36;;;;;;;3.47;3.00;;;;;;;;;;4987730;28;20406;-79
2022/01/08 03:06:02;;;;;;;4.60;3.40;;;;;;;;;;4982453;28;20404;-79
2022/01/08 03:08:28;;;;;;;3.13;2.70;;;;;;;;;;4980403;28;20767;-78
2022/01/08 03:10:54;;;;;;;5.40;3.60;;;;;;;;;;4979902;28;20798;-79
2022/01/08 03:13:20;;;;;;;3.80;3.03;;;;;;;;;;4980493;28;20417;-79
2022/01/08 03:15:46;;;;;;;3.90;3.50;;;;;;;;;;4980827;28;20437;-79
2022/01/08 03:18:12;;;;;;;3.63;3.27;;;;;;;;;;4988788;28;20477;-77
2022/01/08 03:20:47;;;;;;;4.90;3.03;;;;;;;;;;4998469;28;20460;-77
2022/01/08 03:23:17;;;;;;;5.67;3.33;;;;;;;;;;4996590;28;20476;-78
2022/01/08 03:25:44;;;;;;;3.53;3.20;;;;;;;;;;4997146;28;20425;-77
2022/01/08 03:28:11;;;;;;;4.53;3.57;;;;;;;;;;4997368;28;20400;-78
2022/01/08 03:30:37;;;;;;;3.77;3.23;;;;;;;;;;4998909;28;20429;-78
2022/01/08 03:33:03;;;;;;;3.53;3.00;;;;;;;;;;5001534;28;20476;-77
2022/01/08 03:35:30;;;;;;;4.23;3.30;;;;;;;;;;5001426;28;20405;-78
2022/01/08 03:37:56;;;;;;;3.50;2.77;;;;;;;;;;5000544;28;20413;-78
2022/01/08 03:40:22;;;;;;;3.83;3.10;;;;;;;;;;5001009;28;20467;-78
2022/01/08 03:42:48;;;;;;;3.40;2.70;;;;;;;;;;5000057;28;20410;-78
2022/01/08 03:45:14;;;;;;;3.77;3.27;;;;;;;;;;4990417;28;20426;-78
2022/01/08 03:50:15;;;;;;;4.67;3.83;;;;;;;;;;4984568;28;20445;-78
2022/01/08 03:52:41;;;;;;;3.40;2.70;;;;;;;;;;4985707;28;20405;-79
2022/01/08 03:55:07;;;;;;;3.90;3.10;;;;;;;;;;4984105;28;20432;-79
2022/01/08 03:57:33;;;;;;;4.30;2.63;;;;;;;;;;4984066;28;20413;-78
2022/01/08 03:59:59;;;;;;;3.20;2.70;;;;;;;;;;4983465;28;20842;-78
2022/01/08 04:02:25;;;;;;;4.03;2.70;;;;;;;;;;4983613;28;20402;-78
2022/01/08 04:04:51;;;;;;;5.17;3.00;;;;;;;;;;4983201;28;20492;-78
2022/01/08 04:07:18;;;;;;;3.40;2.80;;;;;;;;;;4983080;28;20434;-79
2022/01/08 04:09:45;;;;;;;3.53;2.60;;;;;;;;;;4983776;28;20409;-79
2022/01/08 04:12:16;;;;;;;3.10;2.80;;;;;;;;;;4981053;28;21004;-79
2022/01/08 04:14:53;;;;;;;4.23;3.27;;;;;;;;;;4982898;28;20933;-79
2022/01/08 04:17:19;;;;;;;3.40;2.60;;;;;;;;;;4982828;28;20401;-79
2022/01/08 04:19:45;;;;;;;6.90;2.70;;;;;;;;;;4984282;28;20456;-79
2022/01/08 04:22:13;;;;;;;4.50;2.70;;;;;;;;;;4983381;28;20401;-79
2022/01/08 04:24:42;;;;;;;3.80;2.90;;;;;;;;;;4984006;28;20445;-79
2022/01/08 04:27:08;;;;;;;3.77;2.73;;;;;;;;;;4967575;28;20453;-79
2022/01/08 04:29:34;;;;;;;2.37;2.10;;;;;;;;;;4964442;29;20454;-79
2022/01/08 04:32:00;;;;;;;2.83;2.07;;;;;;;;;;4963829;29;20490;-79
2022/01/08 04:34:27;;;;;;;3.63;2.77;;;;;;;;;;4963530;29;20438;-79
2022/01/08 04:36:53;;;;;;;2.90;2.40;;;;;;;;;;4964361;29;20805;-79
2022/01/08 04:39:19;;;;;;;2.47;2.00;;;;;;;;;;4962962;29;20891;-79
2022/01/08 04:41:45;;;;;;;4.63;2.80;;;;;;;;;;4962535;28;20993;-80
2022/01/08 04:44:11;;;;;;;4.13;2.40;;;;;;;;;;4963966;28;20501;-79
2022/01/08 04:46:38;;;;;;;3.00;2.53;;;;;;;;;;4965471;29;20417;-79
2022/01/08 04:49:05;;;;;;;2.67;2.27;;;;;;;;;;4985773;23;20489;-60
2022/01/08 04:51:31;;;;;;;4.50;2.10;;;;;;;;;;4976843;28;20401;-60
2022/01/08 04:53:57;;;;;;;3.70;2.30;;;;;;;;;;4976842;28;20430;-60
2022/01/08 04:56:23;;;;;;;5.33;2.20;;;;;;;;;;4976653;28;20969;-59
2022/01/08 04:58:49;;;;;;;4.43;2.43;;;;;;;;;;4976752;28;20409;-59
2022/01/08 05:01:16;;;;;;;2.30;2.03;;;;;;;;;;4976989;28;20469;-60
2022/01/08 05:03:42;;;;;;;3.33;2.20;;;;;;;;;;4976208;28;20977;-60
2022/01/08 05:06:08;;;;;;;3.17;1.90;;;;;;;;;;4976462;28;20433;-60
2022/01/08 05:08:34;;;;;;;3.43;1.70;;;;;;;;;;4976442;28;20909;-60
2022/01/08 05:11:00;;;;;;;2.43;2.00;;;;;;;;;;4976892;28;20413;-60
2022/01/08 05:13:26;;;;;;;2.23;1.50;;;;;;;;;;4968470;28;20480;-59
2022/01/08 05:15:52;;;;;;;2.20;1.83;;;;;;;;;;4957356;28;20446;-60
2022/01/08 05:18:18;;;;;;;3.10;1.73;;;;;;;;;;4957015;29;20410;-59
2022/01/08 05:20:54;;;;;;;2.33;1.50;;;;;;;;;;4956876;29;20479;-57
2022/01/08 05:23:20;;;;;;;1.80;1.37;;;;;;;;;;4956734;28;20430;-58
2022/01/08 05:25:46;;;;;;;2.37;1.43;;;;;;;;;;4956352;29;20501;-58
2022/01/08 05:28:12;;;;;;;1.80;1.40;;;;;;;;;;4956956;29;20403;-60
2022/01/08 05:30:38;;;;;;;3.10;1.60;;;;;;;;;;4956646;29;20430;-57
2022/01/08 05:33:05;;;;;;;4.90;1.87;;;;;;;;;;4956534;28;20444;-60
2022/01/08 05:35:31;;;;;;;2.50;1.60;;;;;;;;;;4956465;29;20426;-58
2022/01/08 05:37:57;;;;;;;2.17;1.40;;;;;;;;;;4956472;29;20410;-60
2022/01/08 05:40:23;;;;;;;3.40;1.40;;;;;;;;;;4956187;29;20457;-59
2022/01/08 05:42:49;;;;;;;1.83;1.23;;;;;;;;;;4956404;29;20408;-59
2022/01/08 05:45:15;;;;;;;2.17;1.30;;;;;;;;;;4956529;28;20426;-59
2022/01/08 05:47:41;;;;;;;2.57;1.57;;;;;;;;;;4956377;29;20487;-59
2022/01/08 05:50:08;;;;;;;2.37;1.40;;;;;;;;;;4956102;29;20876;-59
2022/01/08 05:52:34;;;;;;;2.07;1.50;;;;;;;;;;4956054;28;20418;-59
2022/01/08 05:55:00;;;;;;;1.97;1.30;;;;;;;;;;4956202;28;20426;-59
2022/01/08 05:57:26;;;;;;;1.87;1.23;;;;;;;;;;4956097;29;20414;-59
2022/01/08 05:59:52;;;;;;;2.57;1.73;;;;;;;;;;4955960;29;20486;-60
2022/01/08 06:02:18;;;;;;;2.10;1.60;;;;;;;;;;4956063;29;20399;-60
2022/01/08 06:04:44;;;;;;;3.40;1.63;;;;;;;;;;4955842;28;20423;-59
2022/01/08 06:07:10;;;;;;;3.00;1.50;;;;;;;;;;4956263;29;20406;-59
2022/01/08 06:09:36;;;;;;;2.07;1.37;;;;;;;;;;4956165;29;20402;-58
2022/01/08 06:12:02;;;;;;;2.13;1.23;;;;;;;;;;4955990;29;20749;-60
2022/01/08 06:14:28;;;;;;;2.70;1.80;;;;;;;;;;4956029;28;20473;-60
2022/01/08 06:16:54;;;;;;;2.27;1.90;;;;;;;;;;4955607;29;20462;-56
2022/01/08 06:19:20;;;;;;;2.37;1.60;;;;;;;;;;4955714;29;20454;-57
2022/01/08 06:21:46;;;;;;;2.33;1.60;;;;;;;;;;4955962;29;20494;-61
2022/01/08 06:24:14;;;;;;;2.50;1.47;;;;;;;;;;4955674;28;20469;-58
2022/01/08 06:26:40;;;;;;;2.53;1.80;;;;;;;;;;4956005;29;20411;-60
2022/01/08 06:29:06;;;;;;;2.27;1.33;;;;;;;;;;4955673;29;20883;-58
2022/01/08 06:31:32;;;;;;;1.70;1.40;;;;;;;;;;4955643;29;20453;-58
2022/01/08 06:33:58;;;;;;;2.90;1.33;;;;;;;;;;4955542;28;20426;-61
2022/01/08 06:36:24;;;;;;;1.50;1.10;;;;;;;;;;4955412;29;20403;-57
2022/01/08 06:38:51;;;;;;;1.60;1.30;;;;;;;;;;4955845;29;20887;-58
2022/01/08 06:41:17;;;;;;;2.20;1.43;;;;;;;;;;4956012;29;20462;-59
2022/01/08 06:43:43;;;;;;;1.97;1.30;;;;;;;;;;4955686;28;20422;-58
2022/01/08 06:46:09;;;;;;;1.90;1.33;;;;;;;;;;4956176;29;20417;-59
2022/01/08 06:48:35;;;;;;;1.70;1.30;;;;;;;;;;4955568;29;20959;-58
2022/01/08 06:51:02;;;;;;;2.17;1.17;;;;;;;;;;4955661;29;20438;-55
2022/01/08 06:53:28;;;;;;;1.60;1.30;;;;;;;;;;4955581;28;20431;-59
2022/01/08 06:55:54;;;;;;;1.70;1.10;;;;;;;;;;4955342;29;20415;-59
2022/01/08 06:58:20;;;;;;;1.70;1.30;;;;;;;;;;4955591;29;20430;-59
2022/01/08 07:00:47;;;;;;;1.47;1.20;;;;;;;;;;4955646;29;20457;-60
2022/01/08 07:03:13;;;;;;;1.80;1.20;;;;;;;;;;4955115;28;20920;-60
2022/01/08 07:05:40;;;;;;;2.50;1.13;;;;;;;;;;4956877;28;20422;-61
2022/01/08 07:08:06;;;;;;;1.80;1.00;;;;;;;;;;4959737;29;20410;-60
2022/01/08 07:10:33;;;;;;;4.17;1.07;;;;;;;;;;4959143;29;20505;-60
2022/01/08 07:12:59;;;;;;;1.60;1.00;;;;;;;;;;4959257;28;20437;-60
2022/01/08 07:15:25;;;;;;;1.63;1.33;;;;;;;;;;4959466;29;20542;-60
2022/01/08 07:17:51;;;;;;;1.63;0.90;;;;;;;;;;4958949;29;20414;-61
2022/01/08 07:20:18;;;;;;;1.67;1.10;;;;;;;;;;4958902;29;20807;-59
2022/01/08 07:22:44;;;;;;;1.77;1.10;;;;;;;;;;4959124;29;20759;-60
2022/01/08 07:25:10;;;;;;;2.60;1.13;;;;;;;;;;4958506;28;20509;-60
2022/01/08 07:27:36;;;;;;;2.10;1.10;;;;;;;;;;4958613;29;20774;-60
2022/01/08 07:30:04;;;;;;;2.90;1.43;;;;;;;;;;4958824;29;20414;-57
2022/01/08 07:32:30;;;;;;;2.60;1.20;;;;;;;;;;4958717;29;20502;-61
2022/01/08 07:34:57;;;;;;;1.70;1.00;;;;;;;;;;4958689;28;20436;-61
2022/01/08 07:37:23;;;;;;;1.40;1.00;;;;;;;;;;4958757;29;20418;-59
2022/01/08 07:39:49;;;;;;;1.63;1.10;;;;;;;;;;4958317;29;20442;-59
2022/01/08 07:42:15;;;;;;;1.80;1.20;;;;;;;;;;4958423;29;20402;-60
2022/01/08 07:44:41;;;;;;;1.60;1.10;;;;;;;;;;4958469;28;20788;-61
2022/01/08 07:47:07;;;;;;;1.93;1.30;;;;;;;;;;4958809;29;20421;-61
2022/01/08 07:49:33;;;;;;;1.60;1.20;;;;;;;;;;4958264;29;20449;-60
2022/01/08 07:52:00;;;;;;;1.57;1.27;;;;;;;;;;4958713;29;20417;-60
2022/01/08 07:54:26;;;;;;;1.87;1.27;;;;;;;;;;4956887;28;20955;-60
2022/01/08 07:56:52;;;;;;;2.10;1.27;;;;;;;;;;4958195;29;20904;-60
2022/01/08 07:59:18;;;;;;;2.67;1.20;;;;;;;;;;4958589;29;20454;-60
2022/01/08 08:01:44;;;;;;;1.90;1.40;;;;;;;;;;4958442;29;20884;-60
2022/01/08 08:04:10;;;;;;;2.03;1.27;;;;;;;;;;4958486;28;20454;-59
2022/01/08 08:06:43;;;;;;;3.00;1.20;;;;;;;;;;4958165;29;20410;-60
2022/01/08 08:09:09;;;;;;;1.83;1.27;;;;;;;;;;4958029;29;20827;-57
2022/01/08 08:11:35;;;;;;;2.03;1.10;;;;;;;;;;4956455;29;20430;-60
2022/01/08 08:14:01;;;;;;;4.60;1.50;;;;;;;;;;4957740;28;20434;-59
2022/01/08 08:16:27;;;;;;;2.00;1.30;;;;;;;;;;4957661;28;20410;-59
2022/01/08 08:18:53;;;;;;;1.60;0.90;;;;;;;;;;4957670;29;20477;-60
2022/01/08 08:21:19;;;;;;;2.20;1.07;;;;;;;;;;4957745;29;20803;-56
2022/01/08 08:23:45;;;;;;;1.87;1.23;;;;;;;;;;4957849;28;20938;-60
2022/01/08 08:26:11;;;;;;;2.40;1.30;;;;;;;;;;4957414;29;20405;-59
2022/01/08 08:28:37;;;;;;;1.73;1.20;;;;;;;;;;4957469;29;20399;-58
2022/01/08 08:31:03;;;;;;;1.97;1.30;;;;;;;;;;4957227;29;20406;-60
2022/01/08 08:33:29;;;;;;;2.60;1.23;;;;;;;;;;4957630;28;20438;-59
2022/01/08 08:35:55;;;;;;;2.37;1.43;;;;;;;;;;4957353;29;20922;-59
2022/01/08 08:38:21;;;;;;;1.90;1.00;;;;;;;;;;4957552;29;20414;-60
2022/01/08 08:40:47;;;;;;;2.17;1.10;;;;;;;;;;4957522;29;20538;-60
2022/01/08 08:43:13;;;;;;;2.30;1.10;;;;;;;;;;4957088;28;20413;-60
2022/01/08 08:45:40;;;;;;;3.17;1.30;;;;;;;;;;4957542;29;20407;-60
2022/01/08 08:48:06;;;;;;;2.20;1.30;;;;;;;;;;4957667;29;20917;-60
2022/01/08 08:50:32;;;;;;;2.90;1.00;;;;;;;;;;4957084;29;20469;-60
2022/01/08 08:52:58;;;;;;;1.47;1.07;;;;;;;;;;4956987;28;20595;-60
2022/01/08 08:55:24;;;;;;;2.37;1.30;;;;;;;;;;4957232;29;20411;-60
2022/01/08 08:57:50;;;;;;;1.50;1.10;;;;;;;;;;4957100;29;20441;-60
2022/01/08 09:00:17;;;;;;;4.27;1.27;;;;;;;;;;4957087;29;20547;-59
2022/01/08 09:02:43;;;;;;;1.43;1.00;;;;;;;;;;4956906;29;20406;-60
2022/01/08 09:05:09;;;;;;;1.80;1.37;;;;;;;;;;4957028;28;20789;-60
2022/01/08 09:07:35;;;;;;;1.90;1.10;;;;;;;;;;4957119;29;20415;-60
2022/01/08 09:10:03;;;;;;;1.40;1.10;;;;;;;;;;4957561;29;20402;-58
2022/01/08 09:12:30;;;;;;;1.90;1.03;;;;;;;;;;4957038;29;20813;-60
2022/01/08 09:14:56;;;;;;;1.27;0.87;;;;;;;;;;4956707;28;20931;-60
2022/01/08 09:17:22;;;;;;;1.40;1.20;;;;;;;;;;4957491;29;20989;-58
2022/01/08 09:19:48;;;;;;;2.17;1.10;;;;;;;;;;4956572;29;20451;-59
2022/01/08 09:22:14;;;;;;;1.70;1.40;;;;;;;;;;4956888;29;20494;-56
2022/01/08 09:24:40;;;;;;;2.67;1.30;;;;;;;;;;4956652;28;20430;-59
2022/01/08 09:27:07;;;;;;;1.90;1.30;;;;;;;;;;4956598;29;20454;-58
2022/01/08 09:29:33;;;;;;;2.33;1.23;;;;;;;;;;4956130;28;20825;-60
2022/01/08 09:31:59;;;;;;;2.40;1.27;;;;;;;;;;4956410;29;20403;-58
2022/01/08 09:34:26;;;;;;;3.30;1.20;;;;;;;;;;4956039;28;20487;-60
2022/01/08 09:36:52;;;;;;;1.30;0.90;;;;;;;;;;4956516;29;20415;-55
2022/01/08 09:39:18;;;;;;;1.40;0.80;;;;;;;;;;4956160;29;20542;-58
2022/01/08 09:41:44;;;;;;;1.80;1.00;;;;;;;;;;4956011;29;20409;-58
2022/01/08 09:44:12;;;;;;;1.80;1.00;;;;;;;;;;4955838;28;20937;-55
2022/01/08 09:46:38;;;;;;;2.20;1.40;;;;;;;;;;4956060;29;20394;-57
2022/01/08 09:49:04;;;;;;;1.33;0.97;;;;;;;;;;4955834;29;20529;-57
2022/01/08 09:51:30;;;;;;;3.40;1.50;;;;;;;;;;4956166;29;20747;-60
2022/01/08 09:53:56;;;;;;;5.00;1.30;;;;;;;;;;4956090;28;20837;-59
2022/01/08 09:56:26;;;;;;;1.40;1.00;;;;;;;;;;4955878;29;20813;-60
2022/01/08 09:58:53;;;;;;;2.07;1.30;;;;;;;;;;4956196;29;20757;-58
2022/01/08 10:01:26;;;;;;;1.97;1.50;;;;;;;;;;4955659;29;20978;-59
2022/01/08 10:03:52;;;;;;;2.13;1.20;;;;;;;;;;4955658;28;20419;-58
2022/01/08 10:06:23;;;;;;;2.03;1.10;;;;;;;;;;4955493;29;20395;-56
2022/01/08 10:08:49;;;;;;;1.60;1.20;;;;;;;;;;4955511;29;20461;-57
2022/01/08 10:11:15;;;;;;;1.60;1.30;;;;;;;;;;4955195;29;20415;-59
2022/01/08 10:13:42;;;;;;;1.97;1.47;;;;;;;;;;4955176;28;20442;-57
2022/01/08 10:18:57;;;;;;;2.83;1.33;;;;;;;;;;4955420;29;20414;-57
2022/01/08 10:21:32;;;;;;;1.80;1.43;;;;;;;;;;4954944;29;20497;-55
2022/01/08 10:24:04;;;;;;;2.37;1.50;;;;;;;;;;4955472;28;20433;-57
2022/01/08 10:26:31;;;;;;;1.50;1.30;;;;;;;;;;4955230;29;20484;-56
2022/01/08 10:28:59;;;;;;;1.80;1.40;;;;;;;;;;4955535;29;20407;-60
2022/01/08 10:31:26;;;;;;;2.23;1.43;;;;;;;;;;4955357;29;20403;-59
2022/01/08 10:33:52;;;;;;;1.70;1.40;;;;;;;;;;4955593;28;20450;-59
2022/01/08 10:36:26;;;;;;;2.60;1.50;;;;;;;;;;4955402;29;20422;-58
2022/01/08 10:38:53;;;;;;;1.57;1.13;;;;;;;;;;4957825;29;20818;-58
2022/01/08 10:41:19;;;;;;;1.90;1.40;;;;;;;;;;4954681;29;20537;-59
2022/01/08 10:43:45;;;;;;;1.60;1.30;;;;;;;;;;4955005;28;20435;-58
2022/01/08 10:46:16;;;;;;;1.90;1.50;;;;;;;;;;4955652;29;20402;-59
2022/01/08 10:48:44;;;;;;;3.20;1.40;;;;;;;;;;4955272;29;20529;-59
2022/01/08 10:51:14;;;;;;;5.63;1.67;;;;;;;;;;4955262;29;20402;-56
2022/01/08 10:53:50;;;;;;;2.80;1.77;;;;;;;;;;4955530;28;20561;-59
2022/01/08 10:56:28;;;;;;;2.20;1.50;;;;;;;;;;4955160;29;20489;-60
2022/01/08 10:59:04;;;;;;;2.03;1.63;;;;;;;;;;4955128;29;20409;-59
2022/01/08 11:01:56;;;;;;;4.47;1.40;;;;;;;;;;4987610;23;20485;-67
2022/01/08 11:04:38;;;;;;;2.63;1.90;;;;;;;;;;4971577;28;20424;-67
2022/01/08 11:07:10;;;;;;;4.30;1.50;;;;;;;;;;4974174;28;20405;-67
2022/01/08 11:09:38;;;;;;;3.07;2.13;;;;;;;;;;4974514;28;20460;-67
2022/01/08 11:12:05;;;;;;;2.50;1.53;;;;;;;;;;4974066;28;20475;-67
2022/01/08 11:17:30;;;;;;;2.23;1.60;;;;;;;;;;4974383;28;20390;-67
2022/01/08 11:20:13;;;;;;;3.07;1.70;;;;;;;;;;4974247;28;20476;-67
2022/01/08 11:22:41;;;;;;;2.00;1.80;;;;;;;;;;4974113;28;20496;-67
2022/01/08 11:25:19;;;;;;;2.60;1.80;;;;;;;;;;4973994;28;20429;-67
2022/01/08 11:28:09;;;;;;;2.60;1.97;;;;;;;;;;4974158;28;20734;-67
2022/01/08 11:30:37;;;;;;;3.80;1.90;;;;;;;;;;4962990;28;20487;-67
2022/01/08 11:33:08;;;;;;;2.20;1.90;;;;;;;;;;4973848;28;20437;-67
2022/01/08 11:35:36;;;;;;;6.60;2.60;;;;;;;;;;4974190;28;20421;-67
2022/01/08 11:38:04;;;;;;;2.83;2.20;;;;;;;;;;4973897;28;20465;-67
2022/01/08 11:40:31;;;;;;;3.20;2.30;;;;;;;;;;4973794;28;20460;-67
2022/01/08 11:43:04;;;;;;;2.90;2.23;;;;;;;;;;4974138;28;20405;-67
2022/01/08 11:45:33;;;;;;;2.50;2.10;;;;;;;;;;4974049;28;20465;-67
2022/01/08 11:48:00;;;;;;;3.20;2.27;;;;;;;;;;4973878;28;20455;-67
2022/01/08 11:50:27;;;;;;;2.67;2.47;;;;;;;;;;4973654;28;20404;-67
2022/01/08 11:53:12;;;;;;;4.00;2.40;;;;;;;;;;4976750;28;20410;-67
2022/01/08 11:55:39;;;;;;;2.80;2.30;;;;;;;;;;4977049;28;20886;-67
2022/01/08 11:58:23;;;;;;;2.53;1.90;;;;;;;;;;4977310;28;20878;-67
2022/01/08 12:01:00;;;;;;;2.63;2.00;;;;;;;;;;4975322;28;20468;-67
2022/01/08 12:03:30;;;;;;;3.30;2.20;;;;;;;;;;4976988;28;20405;-67
2022/01/08 12:05:56;;;;;;;2.60;2.00;;;;;;;;;;4977209;28;20467;-67
2022/01/08 12:08:52;;;;;;;3.07;1.90;;;;;;;;;;4977248;28;20416;-67
2022/01/08 12:11:18;;;;;;;3.20;2.03;;;;;;;;;;4960321;28;20426;-67
2022/01/08 12:13:48;;;;;;;5.90;2.77;;;;;;;;;;4976719;28;20409;-67
2022/01/08 12:16:32;;;;;;;6.27;2.53;;;;;;;;;;4977092;28;20537;-67
2022/01/08 12:18:58;;;;;;;2.80;2.03;;;;;;;;;;4976655;28;20397;-67
2022/01/08 12:21:41;;;;;;;3.97;1.87;;;;;;;;;;4976537;28;20488;-67
2022/01/08 12:24:26;;;;;;;4.23;2.23;;;;;;;;;;4976822;28;20725;-67
2022/01/08 12:26:52;;;;;;;5.97;2.33;;;;;;;;;;4976761;28;20394;-67
2022/01/08 12:29:37;;;;;;;4.00;2.23;;;;;;;;;;4976413;28;20429;-68
2022/01/08 12:32:27;;;;;;;3.40;2.37;;;;;;;;;;4976230;28;20425;-67
2022/01/08 12:35:01;;;;;;;8.23;2.90;;;;;;;;;;4976488;28;20399;-67
2022/01/08 12:37:37;;;;;;;2.43;2.10;;;;;;;;;;4976216;28;20386;-67
2022/01/08 12:40:04;;;;;;;2.80;2.50;;;;;;;;;;4976105;28;20453;-67
2022/01/08 12:42:30;;;;;;;3.50;2.47;;;;;;;;;;4976895;28;20496;-68
2022/01/08 12:45:06;;;;;;;3.20;2.07;;;;;;;;;;4976199;28;20414;-68
2022/01/08 12:47:56;;;;;;;2.83;2.03;;;;;;;;;;4976365;28;20401;-68
2022/01/08 12:50:25;;;;;;;4.87;2.53;;;;;;;;;;4966991;28;20788;-68
2022/01/08 12:53:06;;;;;;;3.07;2.67;;;;;;;;;;4975980;28;20906;-67
2022/01/08 12:55:33;;;;;;;2.50;2.00;;;;;;;;;;4975886;28;20996;-67
2022/01/08 12:57:59;;;;;;;2.97;2.03;;;;;;;;;;4975949;28;20898;-67
2022/01/08 13:00:25;;;;;;;2.93;2.07;;;;;;;;;;4975587;28;20456;-68
2022/01/08 13:02:51;;;;;;;2.60;2.07;;;;;;;;;;4975152;28;20459;-67
2022/01/08 13:05:17;;;;;;;3.20;2.60;;;;;;;;;;4975788;28;20492;-68
2022/01/08 13:07:50;;;;;;;5.43;3.47;;;;;;;;;;4975697;28;20402;-67
2022/01/08 13:10:16;;;;;;;4.97;3.00;;;;;;;;;;4975750;28;20500;-70
2022/01/08 13:12:43;;;;;;;6.10;3.00;;;;;;;;;;4975579;28;20773;-67
2022/01/08 13:15:11;;;;;;;3.37;2.50;;;;;;;;;;4976040;28;20413;-67
2022/01/08 13:17:37;;;;;;;6.33;2.97;;;;;;;;;;4976146;28;20891;-67
2022/01/08 13:20:07;;;;;;;3.73;2.83;;;;;;;;;;4975343;28;20452;-67
2022/01/08 13:22:33;;;;;;;2.73;2.53;;;;;;;;;;4975280;28;20430;-67
2022/01/08 13:24:59;;;;;;;2.83;2.40;;;;;;;;;;4975364;28;20469;-67
2022/01/08 13:27:26;;;;;;;4.03;2.33;;;;;;;;;;4974101;28;20444;-67
2022/01/08 13:29:55;;;;;;;3.50;2.47;;;;;;;;;;4975561;28;20805;-67
2022/01/08 13:32:24;;;;;;;4.63;2.30;;;;;;;;;;4975172;28;20513;-67
2022/01/08 13:34:50;;;;;;;2.33;1.80;;;;;;;;;;4975167;28;20405;-68
2022/01/08 13:37:18;;;;;;;4.80;2.07;;;;;;;;;;4975319;28;20432;-68
2022/01/08 13:39:44;;;;;;;2.43;2.23;;;;;;;;;;4975110;28;20480;-67
2022/01/08 13:42:12;;;;;;;2.90;2.10;;;;;;;;;;4975307;28;20429;-68
2022/01/08 13:44:39;;;;;;;2.17;1.83;;;;;;;;;;4975150;28;20409;-68
2022/01/08 13:47:05;;;;;;;4.53;1.83;;;;;;;;;;4974941;28;20408;-68
2022/01/08 13:49:31;;;;;;;2.83;2.10;;;;;;;;;;4975304;28;20433;-68
2022/01/08 13:51:58;;;;;;;4.00;1.77;;;;;;;;;;4974812;28;20952;-68
2022/01/08 13:54:34;;;;;;;2.33;1.40;;;;;;;;;;4975125;28;20785;-68
2022/01/08 13:57:13;;;;;;;3.47;1.60;;;;;;;;;;4975177;28;20441;-68
2022/01/08 13:59:39;;;;;;;3.33;2.00;;;;;;;;;;4974735;28;20485;-68
2022/01/08 14:02:05;;;;;;;3.57;1.93;;;;;;;;;;4974505;28;20441;-68
2022/01/08 14:04:31;;;;;;;4.23;2.13;;;;;;;;;;4974635;28;20456;-68
2022/01/08 14:06:57;;;;;;;3.30;1.93;;;;;;;;;;4974750;28;20894;-68
2022/01/08 14:09:23;;;;;;;3.87;1.90;;;;;;;;;;4974979;28;20767;-68
2022/01/08 14:11:49;;;;;;;2.27;1.57;;;;;;;;;;4974705;28;20427;-68
2022/01/08 14:14:19;;;;;;;3.43;1.73;;;;;;;;;;4974388;28;20489;-68
2022/01/08 14:16:45;;;;;;;2.80;1.63;;;;;;;;;;4974637;28;20425;-68
2022/01/08 14:19:21;;;;;;;3.37;2.10;;;;;;;;;;4974409;28;20401;-68
2022/01/08 14:21:54;;;;;;;2.10;1.80;;;;;;;;;;4974630;28;20429;-68
2022/01/08 14:24:21;;;;;;;2.90;1.90;;;;;;;;;;4974358;28;20758;-68
2022/01/08 14:27:07;;;;;;;2.77;1.90;;;;;;;;;;4974304;28;20393;-68
2022/01/08 14:29:34;;;;;;;5.20;2.07;;;;;;;;;;4974664;28;20911;-68
2022/01/08 14:32:01;;;;;;;2.67;1.60;;;;;;;;;;4974393;28;20429;-68
2022/01/08 14:34:28;;;;;;;2.10;1.67;;;;;;;;;;4974236;28;20405;-68
2022/01/08 14:36:55;;;;;;;3.17;1.30;;;;;;;;;;4974339;28;20923;-68
2022/01/08 14:39:33;;;;;;;1.80;1.30;;;;;;;;;;4974441;28;20438;-68
2022/01/08 14:42:00;;;;;;;1.90;1.50;;;;;;;;;;4974394;28;20421;-68
2022/01/08 14:44:26;;;;;;;2.00;1.50;;;;;;;;;;4972857;28;20413;-68
2022/01/08 14:46:53;;;;;;;6.43;1.93;;;;;;;;;;4974155;28;20400;-68
2022/01/08 14:49:19;;;;;;;3.93;2.00;;;;;;;;;;4974524;28;20433;-68
2022/01/08 14:51:45;;;;;;;2.73;2.03;;;;;;;;;;4974397;28;20425;-68
2022/01/08 14:54:11;;;;;;;2.63;1.53;;;;;;;;;;4974083;28;20398;-68
2022/01/08 14:56:38;;;;;;;2.53;1.70;;;;;;;;;;4974167;28;20561;-68
2022/01/08 14:59:04;;;;;;;3.60;1.93;;;;;;;;;;4974362;28;20398;-68
2022/01/08 15:01:30;;;;;;;4.33;1.93;;;;;;;;;;4973790;28;20468;-67
2022/01/08 15:03:58;;;;;;;3.27;1.83;;;;;;;;;;4974564;28;20401;-67
2022/01/08 15:06:24;;;;;;;2.20;1.60;;;;;;;;;;4974401;28;20413;-67
2022/01/08 15:08:50;;;;;;;3.20;1.57;;;;;;;;;;4974555;28;20404;-67
2022/01/08 15:11:16;;;;;;;4.13;2.10;;;;;;;;;;4974333;28;20414;-67